createdAt,value
2022-10-30T00:00:30.402Z,999.95
2022-10-30T00:01:30.468Z,999.91
2022-10-30T00:02:30.423Z,999.97
2022-10-30T00:03:30.376Z,999.98
2022-10-30T00:04:30.342Z,999.98
2022-10-30T00:05:30.332Z,999.99
2022-10-30T00:06:30.321Z,999.97
2022-10-30T00:07:30.333Z,1000.00
2022-10-30T00:08:30.296Z,999.98
2022-10-30T00:09:30.287Z,999.97
2022-10-30T00:10:30.273Z,999.98
2022-10-30T00:11:30.266Z,999.94
2022-10-30T00:12:30.326Z,999.95
2022-10-30T00:13:30.243Z,999.94
2022-10-30T00:14:30.228Z,999.92
2022-10-30T00:15:30.217Z,999.93
2022-10-30T00:16:30.233Z,999.95
2022-10-30T00:17:30.201Z,999.91
2022-10-30T00:18:30.183Z,999.93
2022-10-30T00:19:30.173Z,999.89
2022-10-30T00:20:30.164Z,999.93
2022-10-30T00:21:30.149Z,999.91
2022-10-30T00:22:30.166Z,999.89
2022-10-30T00:23:30.142Z,999.85
2022-10-30T00:24:30.140Z,999.91
2022-10-30T00:25:30.104Z,999.87
2022-10-30T00:26:30.092Z,999.86
2022-10-30T00:27:30.093Z,999.82
2022-10-30T00:28:30.088Z,999.83
2022-10-30T00:29:30.083Z,999.80
2022-10-30T00:30:30.050Z,999.80
2022-10-30T00:31:30.037Z,999.81
2022-10-30T00:32:30.047Z,999.80
2022-10-30T00:33:30.016Z,999.79
2022-10-30T00:34:30.001Z,999.79
2022-10-30T00:35:29.992Z,999.70
2022-10-30T00:36:30.000Z,999.72
2022-10-30T00:37:29.968Z,999.67
2022-10-30T00:38:29.979Z,999.66
2022-10-30T00:39:29.947Z,999.67
2022-10-30T00:40:29.934Z,999.65
2022-10-30T00:41:29.949Z,999.66
2022-10-30T00:42:29.940Z,999.64
2022-10-30T00:43:29.904Z,999.66
2022-10-30T00:44:29.907Z,999.67
2022-10-30T00:45:29.880Z,999.65
2022-10-30T00:46:29.890Z,999.67
2022-10-30T00:47:29.861Z,999.68
2022-10-30T00:48:29.842Z,999.66
2022-10-30T00:49:29.834Z,999.66
2022-10-30T00:50:29.834Z,999.68
2022-10-30T00:51:29.836Z,999.64
2022-10-30T00:52:29.802Z,999.70
2022-10-30T00:53:29.818Z,999.71
2022-10-30T00:54:29.775Z,999.71
2022-10-30T00:55:29.766Z,999.74
2022-10-30T00:56:29.754Z,999.73
2022-10-30T00:57:29.749Z,999.76
2022-10-30T00:58:29.751Z,999.73
2022-10-30T00:59:29.719Z,999.72
2022-10-30T01:00:29.726Z,999.77
2022-10-30T01:01:29.816Z,999.74
2022-10-30T01:02:29.804Z,999.74
2022-10-30T01:03:29.703Z,999.74
2022-10-30T01:04:30.398Z,999.71
2022-10-30T01:05:29.680Z,999.74
2022-10-30T01:06:29.663Z,999.78
2022-10-30T01:07:29.631Z,999.78
2022-10-30T01:08:29.654Z,999.78
2022-10-30T01:09:29.608Z,999.68
2022-10-30T01:10:29.618Z,999.75
2022-10-30T01:11:29.587Z,999.73
2022-10-30T01:12:29.612Z,999.71
2022-10-30T01:13:29.564Z,999.69
2022-10-30T01:14:29.553Z,999.69
2022-10-30T01:15:29.576Z,999.70
2022-10-30T01:16:29.546Z,999.66
2022-10-30T01:17:29.519Z,999.71
2022-10-30T01:18:29.526Z,999.71
2022-10-30T01:19:29.528Z,999.72
2022-10-30T01:20:29.488Z,999.69
2022-10-30T01:21:29.475Z,999.72
2022-10-30T01:22:29.487Z,999.71
2022-10-30T01:25:49.897Z,999.66
2022-10-30T01:26:49.886Z,999.67
2022-10-30T01:27:49.889Z,999.67
2022-10-30T01:28:49.863Z,999.61
2022-10-30T01:29:49.850Z,999.61
2022-10-30T01:30:49.841Z,999.58
2022-10-30T01:31:49.848Z,999.57
2022-10-30T01:32:49.851Z,999.52
2022-10-30T01:33:49.810Z,999.55
2022-10-30T01:34:49.811Z,999.57
2022-10-30T01:35:49.786Z,999.53
2022-10-30T01:36:49.772Z,999.57
2022-10-30T01:37:49.764Z,999.55
2022-10-30T01:38:49.858Z,999.56
2022-10-30T01:39:49.755Z,999.53
2022-10-30T01:40:49.727Z,999.58
2022-10-30T01:41:49.718Z,999.57
2022-10-30T01:42:49.707Z,999.60
2022-10-30T01:43:49.698Z,999.61
2022-10-30T01:44:49.700Z,999.58
2022-10-30T01:45:49.674Z,999.62
2022-10-30T01:46:49.662Z,999.62
2022-10-30T01:47:49.673Z,999.62
2022-10-30T01:48:49.639Z,999.59
2022-10-30T01:49:49.654Z,999.58
2022-10-30T01:50:49.616Z,999.58
2022-10-30T01:51:49.606Z,999.55
2022-10-30T01:52:49.597Z,999.53
2022-10-30T01:53:49.585Z,999.57
2022-10-30T01:54:49.572Z,999.52
2022-10-30T01:55:49.586Z,999.54
2022-10-30T01:56:49.551Z,999.50
2022-10-30T01:57:49.541Z,999.54
2022-10-30T01:58:49.548Z,999.55
2022-10-30T01:59:49.519Z,999.53
2022-10-30T02:00:49.510Z,999.52
2022-10-30T02:01:49.700Z,999.55
2022-10-30T02:02:49.610Z,999.52
2022-10-30T02:03:49.534Z,999.51
2022-10-30T02:04:49.478Z,999.49
2022-10-30T02:05:49.456Z,999.52
2022-10-30T02:06:49.438Z,999.52
2022-10-30T02:07:49.524Z,999.49
2022-10-30T02:08:49.425Z,999.49
2022-10-30T02:09:49.413Z,999.50
2022-10-30T02:10:49.395Z,999.58
2022-10-30T02:11:49.407Z,999.55
2022-10-30T02:12:49.382Z,999.57
2022-10-30T02:13:49.369Z,999.59
2022-10-30T02:14:49.362Z,999.55
2022-10-30T02:15:49.343Z,999.55
2022-10-30T02:16:49.331Z,999.53
2022-10-30T02:17:49.653Z,999.53
2022-10-30T02:18:49.310Z,999.50
2022-10-30T02:19:49.646Z,999.50
2022-10-30T02:20:49.288Z,999.50
2022-10-30T02:21:49.277Z,999.50
2022-10-30T02:22:52.975Z,999.45
2022-10-30T02:23:50.252Z,999.47
2022-10-30T02:24:49.262Z,999.43
2022-10-30T02:25:49.232Z,999.42
2022-10-30T02:26:49.244Z,999.51
2022-10-30T02:27:49.210Z,999.49
2022-10-30T02:28:49.199Z,999.56
2022-10-30T02:29:49.189Z,999.52
2022-10-30T02:30:49.238Z,999.55
2022-10-30T02:31:49.170Z,999.56
2022-10-30T02:32:49.152Z,999.53
2022-10-30T02:33:49.147Z,999.52
2022-10-30T02:34:49.132Z,999.50
2022-10-30T02:35:49.189Z,999.49
2022-10-30T02:36:49.108Z,999.51
2022-10-30T02:37:49.104Z,999.54
2022-10-30T02:38:49.086Z,999.50
2022-10-30T02:39:49.076Z,999.49
2022-10-30T02:40:49.083Z,999.50
2022-10-30T02:41:49.087Z,999.45
2022-10-30T02:42:49.042Z,999.45
2022-10-30T02:43:49.038Z,999.46
2022-10-30T02:44:49.037Z,999.43
2022-10-30T02:45:49.030Z,999.41
2022-10-30T02:46:49.028Z,999.45
2022-10-30T02:47:49.109Z,999.48
2022-10-30T02:48:48.973Z,999.49
2022-10-30T02:49:48.969Z,999.46
2022-10-30T02:50:48.970Z,999.46
2022-10-30T02:51:48.976Z,999.47
2022-10-30T02:52:48.929Z,999.43
2022-10-30T02:53:48.920Z,999.45
2022-10-30T02:54:48.908Z,999.42
2022-10-30T02:55:48.930Z,999.43
2022-10-30T02:56:48.903Z,999.42
2022-10-30T02:57:48.880Z,999.45
2022-10-30T02:58:48.883Z,999.41
2022-10-30T02:59:48.869Z,999.44
2022-10-30T03:00:48.895Z,999.44
2022-10-30T03:01:48.962Z,999.42
2022-10-30T03:02:48.877Z,999.47
2022-10-30T03:03:48.810Z,999.48
2022-10-30T03:04:48.795Z,999.45
2022-10-30T03:05:48.786Z,999.49
2022-10-30T03:06:48.820Z,999.48
2022-10-30T03:07:48.782Z,999.53
2022-10-30T03:08:48.779Z,999.53
2022-10-30T03:09:48.744Z,999.55
2022-10-30T03:10:48.802Z,999.59
2022-10-30T03:11:48.743Z,999.59
2022-10-30T03:12:48.724Z,999.63
2022-10-30T03:13:48.702Z,999.64
2022-10-30T03:14:48.687Z,999.65
2022-10-30T03:15:48.674Z,999.62
2022-10-30T03:16:48.715Z,999.63
2022-10-30T03:17:48.654Z,999.60
2022-10-30T03:18:48.641Z,999.58
2022-10-30T03:19:48.633Z,999.64
2022-10-30T03:20:48.619Z,999.59
2022-10-30T03:24:09.628Z,999.69
2022-10-30T03:25:09.612Z,999.63
2022-10-30T03:26:09.659Z,999.64
2022-10-30T03:27:09.560Z,999.62
2022-10-30T03:28:09.527Z,999.63
2022-10-30T03:29:09.711Z,999.66
2022-10-30T03:30:09.513Z,999.64
2022-10-30T03:31:09.497Z,999.63
2022-10-30T03:32:09.542Z,999.71
2022-10-30T03:33:09.512Z,999.66
2022-10-30T03:34:09.467Z,999.69
2022-10-30T03:35:09.797Z,999.67
2022-10-30T03:36:09.439Z,999.64
2022-10-30T03:37:09.435Z,999.61
2022-10-30T03:38:09.438Z,999.61
2022-10-30T03:39:09.414Z,999.62
2022-10-30T03:40:09.413Z,999.62
2022-10-30T03:41:09.385Z,999.62
2022-10-30T03:42:09.381Z,999.61
2022-10-30T03:43:09.386Z,999.63
2022-10-30T03:44:09.351Z,999.62
2022-10-30T03:45:09.341Z,999.63
2022-10-30T03:46:09.331Z,999.64
2022-10-30T03:47:09.333Z,999.62
2022-10-30T03:48:09.461Z,999.60
2022-10-30T03:49:09.350Z,999.63
2022-10-30T03:50:09.327Z,999.60
2022-10-30T03:51:09.310Z,999.61
2022-10-30T03:52:09.282Z,999.59
2022-10-30T03:53:09.277Z,999.58
2022-10-30T03:54:09.270Z,999.56
2022-10-30T03:55:09.252Z,999.63
2022-10-30T03:56:09.233Z,999.63
2022-10-30T03:57:09.212Z,999.61
2022-10-30T03:58:09.194Z,999.64
2022-10-30T03:59:09.205Z,999.64
2022-10-30T04:00:09.171Z,999.62
2022-10-30T04:01:09.225Z,999.61
2022-10-30T04:02:09.475Z,999.66
2022-10-30T04:03:09.140Z,999.69
2022-10-30T04:04:09.128Z,999.71
2022-10-30T04:05:09.117Z,999.72
2022-10-30T04:06:09.140Z,999.72
2022-10-30T04:07:09.096Z,999.74
2022-10-30T04:08:09.383Z,999.77
2022-10-30T04:09:09.145Z,999.75
2022-10-30T04:10:09.061Z,999.76
2022-10-30T04:11:09.128Z,999.71
2022-10-30T04:12:09.061Z,999.68
2022-10-30T04:13:09.070Z,999.67
2022-10-30T04:14:09.037Z,999.69
2022-10-30T04:15:09.015Z,999.74
2022-10-30T04:16:09.003Z,999.73
2022-10-30T04:18:08.992Z,999.70
2022-10-30T04:19:09.026Z,999.72
2022-10-30T04:20:09.029Z,999.73
2022-10-30T04:21:08.971Z,999.74
2022-10-30T04:22:08.959Z,999.70
2022-10-30T04:23:08.932Z,999.68
2022-10-30T04:24:08.910Z,999.68
2022-10-30T04:25:08.900Z,999.62
2022-10-30T04:26:08.916Z,999.64
2022-10-30T04:27:08.880Z,999.69
2022-10-30T04:28:08.908Z,999.70
2022-10-30T04:29:08.859Z,999.64
2022-10-30T04:30:08.845Z,999.68
2022-10-30T04:31:08.840Z,999.60
2022-10-30T04:32:08.822Z,999.61
2022-10-30T04:33:08.848Z,999.58
2022-10-30T04:34:08.821Z,999.59
2022-10-30T04:35:08.789Z,999.57
2022-10-30T04:36:08.796Z,999.56
2022-10-30T04:37:08.767Z,999.59
2022-10-30T04:38:08.769Z,999.54
2022-10-30T04:39:08.768Z,999.51
2022-10-30T04:40:08.745Z,999.49
2022-10-30T04:41:08.751Z,999.46
2022-10-30T04:42:08.709Z,999.47
2022-10-30T04:43:08.697Z,999.47
2022-10-30T04:44:08.733Z,999.47
2022-10-30T04:45:14.068Z,999.51
2022-10-30T04:46:09.662Z,999.48
2022-10-30T04:47:08.695Z,999.48
2022-10-30T04:48:08.648Z,999.47
2022-10-30T04:49:08.633Z,999.40
2022-10-30T04:50:08.654Z,999.38
2022-10-30T04:51:08.616Z,999.41
2022-10-30T04:52:08.612Z,999.45
2022-10-30T04:53:08.587Z,999.44
2022-10-30T04:54:08.578Z,999.42
2022-10-30T04:55:08.565Z,999.43
2022-10-30T04:56:08.579Z,999.42
2022-10-30T04:57:08.539Z,999.45
2022-10-30T04:58:08.532Z,999.49
2022-10-30T04:59:08.541Z,999.45
2022-10-30T05:00:08.538Z,999.46
2022-10-30T05:01:08.620Z,999.45
2022-10-30T05:02:08.739Z,999.40
2022-10-30T05:03:08.479Z,999.43
2022-10-30T05:04:08.508Z,999.45
2022-10-30T05:05:08.487Z,999.45
2022-10-30T05:06:08.466Z,999.46
2022-10-30T05:07:08.427Z,999.45
2022-10-30T05:08:08.489Z,999.44
2022-10-30T05:09:08.410Z,999.51
2022-10-30T05:10:08.398Z,999.45
2022-10-30T05:11:08.407Z,999.46
2022-10-30T05:12:08.547Z,999.46
2022-10-30T05:13:08.594Z,999.48
2022-10-30T05:14:08.357Z,999.50
2022-10-30T05:15:08.340Z,999.53
2022-10-30T05:16:08.346Z,999.50
2022-10-30T05:17:08.346Z,999.53
2022-10-30T05:18:08.307Z,999.55
2022-10-30T05:19:08.293Z,999.56
2022-10-30T05:20:08.289Z,999.52
2022-10-30T05:21:08.274Z,999.56
2022-10-30T05:22:08.284Z,999.56
2022-10-30T05:23:08.249Z,999.56
2022-10-30T05:24:08.239Z,999.58
2022-10-30T05:25:08.228Z,999.58
2022-10-30T05:26:08.220Z,999.59
2022-10-30T05:27:08.229Z,999.58
2022-10-30T05:28:08.194Z,999.64
2022-10-30T05:29:08.217Z,999.65
2022-10-30T05:30:08.176Z,999.63
2022-10-30T05:31:08.160Z,999.65
2022-10-30T05:32:08.260Z,999.61
2022-10-30T05:33:08.136Z,999.63
2022-10-30T05:34:08.129Z,999.60
2022-10-30T05:35:08.119Z,999.61
2022-10-30T05:36:08.297Z,999.59
2022-10-30T05:37:08.115Z,999.55
2022-10-30T05:38:08.082Z,999.53
2022-10-30T05:39:08.073Z,999.52
2022-10-30T05:40:08.090Z,999.49
2022-10-30T05:41:08.054Z,999.47
2022-10-30T05:42:12.713Z,999.47
2022-10-30T05:43:09.112Z,999.49
2022-10-30T05:44:08.046Z,999.53
2022-10-30T05:45:08.039Z,999.59
2022-10-30T05:46:07.994Z,999.56
2022-10-30T05:47:07.987Z,999.61
2022-10-30T05:48:07.989Z,999.58
2022-10-30T05:49:07.982Z,999.62
2022-10-30T05:50:08.065Z,999.63
2022-10-30T05:51:07.942Z,999.64
2022-10-30T05:52:07.929Z,999.69
2022-10-30T05:53:07.971Z,999.68
2022-10-30T05:54:07.932Z,999.67
2022-10-30T05:55:07.894Z,999.65
2022-10-30T05:56:07.882Z,999.69
2022-10-30T05:57:07.870Z,999.71
2022-10-30T05:58:07.862Z,999.75
2022-10-30T05:59:07.895Z,999.76
2022-10-30T06:00:07.848Z,999.75
2022-10-30T06:01:07.835Z,999.77
2022-10-30T06:02:07.905Z,999.77
2022-10-30T06:03:07.881Z,999.80
2022-10-30T06:04:07.841Z,999.77
2022-10-30T06:05:07.784Z,999.76
2022-10-30T06:06:07.777Z,999.73
2022-10-30T06:07:07.760Z,999.72
2022-10-30T06:08:07.754Z,999.78
2022-10-30T06:09:07.761Z,999.76
2022-10-30T06:10:07.728Z,999.67
2022-10-30T06:11:07.738Z,999.63
2022-10-30T06:12:07.707Z,999.60
2022-10-30T06:13:07.698Z,999.63
2022-10-30T06:14:07.725Z,999.63
2022-10-30T06:15:07.698Z,999.64
2022-10-30T06:16:07.689Z,999.61
2022-10-30T06:17:07.651Z,999.64
2022-10-30T06:18:07.641Z,999.64
2022-10-30T06:19:07.659Z,999.63
2022-10-30T06:20:07.641Z,999.64
2022-10-30T06:21:07.604Z,999.64
2022-10-30T06:22:07.620Z,999.66
2022-10-30T06:23:07.587Z,999.67
2022-10-30T06:24:07.599Z,999.74
2022-10-30T06:25:07.561Z,999.75
2022-10-30T06:26:07.603Z,999.74
2022-10-30T06:27:07.550Z,999.75
2022-10-30T06:28:07.531Z,999.73
2022-10-30T06:29:07.516Z,999.79
2022-10-30T06:30:07.529Z,999.78
2022-10-30T06:31:09.992Z,999.78
2022-10-30T06:32:07.493Z,999.73
2022-10-30T06:33:07.472Z,999.77
2022-10-30T06:34:07.484Z,999.77
2022-10-30T06:35:07.477Z,999.72
2022-10-30T06:36:07.483Z,999.75
2022-10-30T06:37:07.529Z,999.75
2022-10-30T06:38:07.417Z,999.75
2022-10-30T06:39:07.407Z,999.73
2022-10-30T06:40:07.395Z,999.64
2022-10-30T06:41:07.383Z,999.67
2022-10-30T06:42:07.397Z,999.71
2022-10-30T06:43:07.361Z,999.75
2022-10-30T06:44:07.376Z,999.74
2022-10-30T06:45:07.338Z,999.66
2022-10-30T06:47:07.476Z,999.71
2022-10-30T06:48:07.310Z,999.77
2022-10-30T06:49:07.537Z,999.75
2022-10-30T06:50:07.286Z,999.73
2022-10-30T06:51:07.273Z,999.74
2022-10-30T06:52:07.277Z,999.77
2022-10-30T06:53:07.571Z,999.79
2022-10-30T06:54:07.238Z,999.81
2022-10-30T06:55:07.251Z,999.76
2022-10-30T06:56:07.216Z,999.76
2022-10-30T06:57:07.201Z,999.78
2022-10-30T06:58:07.197Z,999.81
2022-10-30T06:59:07.258Z,999.83
2022-10-30T07:00:07.211Z,999.84
2022-10-30T07:01:07.158Z,999.87
2022-10-30T07:02:10.961Z,999.91
2022-10-30T07:03:07.138Z,999.88
2022-10-30T07:04:07.126Z,999.88
2022-10-30T07:05:07.136Z,999.93
2022-10-30T07:06:07.106Z,999.95
2022-10-30T07:07:07.091Z,999.90
2022-10-30T07:08:07.102Z,999.91
2022-10-30T07:09:07.090Z,999.97
2022-10-30T07:10:07.082Z,999.99
2022-10-30T07:11:07.057Z,999.95
2022-10-30T07:12:07.292Z,999.97
2022-10-30T07:13:07.025Z,999.98
2022-10-30T07:14:07.042Z,1000.04
2022-10-30T07:15:07.006Z,1000.03
2022-10-30T07:16:07.028Z,1000.02
2022-10-30T07:17:06.991Z,1000.01
2022-10-30T07:18:06.969Z,1000.01
2022-10-30T07:19:07.006Z,1000.05
2022-10-30T07:20:06.973Z,1000.08
2022-10-30T07:21:06.960Z,1000.06
2022-10-30T07:22:06.931Z,1000.11
2022-10-30T07:23:06.911Z,1000.11
2022-10-30T07:24:06.922Z,1000.13
2022-10-30T07:25:06.916Z,1000.13
2022-10-30T07:26:06.881Z,1000.13
2022-10-30T07:27:06.870Z,1000.09
2022-10-30T07:28:06.860Z,1000.08
2022-10-30T07:29:06.847Z,1000.02
2022-10-30T07:30:06.837Z,1000.01
2022-10-30T07:31:06.849Z,1000.02
2022-10-30T07:32:06.813Z,1000.06
2022-10-30T07:33:06.829Z,1000.07
2022-10-30T07:34:06.800Z,1000.05
2022-10-30T07:35:06.777Z,1000.03
2022-10-30T07:36:06.790Z,999.99
2022-10-30T07:37:06.757Z,999.98
2022-10-30T07:38:06.747Z,999.97
2022-10-30T07:39:06.736Z,999.94
2022-10-30T07:40:12.279Z,999.92
2022-10-30T07:41:07.864Z,999.98
2022-10-30T07:42:06.866Z,999.94
2022-10-30T07:43:06.709Z,1000.01
2022-10-30T07:44:06.682Z,999.95
2022-10-30T07:45:06.711Z,999.95
2022-10-30T07:46:06.905Z,999.95
2022-10-30T07:47:06.652Z,999.92
2022-10-30T07:48:06.643Z,1000.03
2022-10-30T07:49:06.737Z,1000.02
2022-10-30T07:50:06.614Z,1000.14
2022-10-30T07:51:06.625Z,1000.19
2022-10-30T07:52:06.598Z,1000.26
2022-10-30T07:53:06.603Z,1000.38
2022-10-30T07:54:06.572Z,1000.40
2022-10-30T07:55:06.563Z,1000.45
2022-10-30T07:56:06.567Z,1000.42
2022-10-30T07:57:06.788Z,1000.38
2022-10-30T07:58:06.544Z,1000.41
2022-10-30T07:59:06.518Z,1000.41
2022-10-30T08:00:06.508Z,1000.44
2022-10-30T08:01:06.569Z,1000.44
2022-10-30T08:02:06.634Z,1000.36
2022-10-30T08:03:06.479Z,1000.36
2022-10-30T08:04:06.482Z,1000.33
2022-10-30T08:05:06.453Z,1000.32
2022-10-30T08:06:06.505Z,1000.36
2022-10-30T08:07:06.423Z,1000.35
2022-10-30T08:08:06.414Z,1000.39
2022-10-30T08:09:06.427Z,1000.31
2022-10-30T08:10:06.398Z,1000.36
2022-10-30T08:11:06.381Z,1000.37
2022-10-30T08:12:06.391Z,1000.38
2022-10-30T08:13:06.382Z,1000.35
2022-10-30T08:14:06.348Z,1000.36
2022-10-30T08:15:06.333Z,1000.33
2022-10-30T08:16:06.332Z,1000.37
2022-10-30T08:17:06.313Z,1000.35
2022-10-30T08:18:06.324Z,1000.36
2022-10-30T08:19:06.289Z,1000.34
2022-10-30T08:20:06.304Z,1000.31
2022-10-30T08:21:06.269Z,1000.27
2022-10-30T08:22:06.263Z,1000.26
2022-10-30T08:23:06.245Z,1000.24
2022-10-30T08:24:06.320Z,1000.23
2022-10-30T08:25:06.244Z,1000.25
2022-10-30T08:26:06.214Z,1000.22
2022-10-30T08:27:06.202Z,1000.25
2022-10-30T08:28:06.208Z,1000.17
2022-10-30T08:29:06.201Z,1000.17
2022-10-30T08:30:06.170Z,1000.17
2022-10-30T08:31:06.162Z,1000.16
2022-10-30T08:32:06.145Z,1000.12
2022-10-30T08:33:06.138Z,1000.13
2022-10-30T08:34:06.153Z,1000.08
2022-10-30T08:35:06.110Z,1000.12
2022-10-30T08:36:06.100Z,1000.07
2022-10-30T08:37:06.095Z,1000.06
2022-10-30T08:38:06.080Z,1000.07
2022-10-30T08:39:06.093Z,1000.01
2022-10-30T08:40:06.056Z,1000.02
2022-10-30T08:41:06.042Z,1000.04
2022-10-30T08:42:06.033Z,1000.00
2022-10-30T08:43:06.043Z,1000.01
2022-10-30T08:44:06.027Z,999.98
2022-10-30T08:45:05.999Z,999.97
2022-10-30T08:46:05.999Z,999.97
2022-10-30T08:47:06.012Z,1000.01
2022-10-30T08:48:05.968Z,999.98
2022-10-30T08:49:05.955Z,999.96
2022-10-30T08:50:05.943Z,999.95
2022-10-30T08:51:05.961Z,999.95
2022-10-30T08:52:05.922Z,999.88
2022-10-30T08:53:05.917Z,999.84
2022-10-30T08:54:05.904Z,999.81
2022-10-30T08:55:05.886Z,999.78
2022-10-30T08:56:05.916Z,999.76
2022-10-30T08:57:05.872Z,999.77
2022-10-30T08:58:05.882Z,999.82
2022-10-30T08:59:05.848Z,999.75
2022-10-30T09:00:05.855Z,999.80
2022-10-30T09:01:05.892Z,999.82
2022-10-30T09:02:06.190Z,999.77
2022-10-30T09:03:05.796Z,999.83
2022-10-30T09:04:05.787Z,999.82
2022-10-30T09:06:06.033Z,999.82
2022-10-30T09:07:07.624Z,999.78
2022-10-30T09:08:05.742Z,999.78
2022-10-30T09:09:05.760Z,999.78
2022-10-30T09:10:05.718Z,999.83
2022-10-30T09:11:05.709Z,999.79
2022-10-30T09:12:05.696Z,999.71
2022-10-30T09:13:05.690Z,999.75
2022-10-30T09:14:05.673Z,999.74
2022-10-30T09:15:05.696Z,999.71
2022-10-30T09:16:05.669Z,999.69
2022-10-30T09:17:05.642Z,999.72
2022-10-30T09:18:05.681Z,999.69
2022-10-30T09:19:05.698Z,999.68
2022-10-30T09:20:05.628Z,999.69
2022-10-30T09:21:05.664Z,999.72
2022-10-30T09:22:05.592Z,999.67
2022-10-30T09:23:05.580Z,999.67
2022-10-30T09:24:05.564Z,999.70
2022-10-30T09:25:05.576Z,999.71
2022-10-30T09:26:05.568Z,999.71
2022-10-30T09:27:05.533Z,999.72
2022-10-30T09:28:05.521Z,999.68
2022-10-30T09:29:05.509Z,999.66
2022-10-30T09:30:05.503Z,999.63
2022-10-30T09:31:05.515Z,999.60
2022-10-30T09:32:05.495Z,999.62
2022-10-30T09:33:05.878Z,999.63
2022-10-30T09:34:05.459Z,999.62
2022-10-30T09:35:05.467Z,999.60
2022-10-30T09:36:05.431Z,999.63
2022-10-30T09:37:05.450Z,999.60
2022-10-30T09:38:05.411Z,999.60
2022-10-30T09:39:05.400Z,999.62
2022-10-30T09:40:05.385Z,999.62
2022-10-30T09:41:05.376Z,999.67
2022-10-30T09:42:05.388Z,999.64
2022-10-30T09:43:05.355Z,999.67
2022-10-30T09:44:05.340Z,999.70
2022-10-30T09:45:27.849Z,999.70
2022-10-30T09:46:06.318Z,999.65
2022-10-30T09:47:05.345Z,999.71
2022-10-30T09:48:05.324Z,999.69
2022-10-30T09:49:05.384Z,999.68
2022-10-30T09:50:05.296Z,999.66
2022-10-30T09:51:05.268Z,999.70
2022-10-30T09:52:05.530Z,999.74
2022-10-30T09:53:05.243Z,999.72
2022-10-30T09:54:05.229Z,999.66
2022-10-30T09:55:05.220Z,999.74
2022-10-30T09:56:05.229Z,999.76
2022-10-30T09:57:05.203Z,999.76
2022-10-30T09:58:05.186Z,999.78
2022-10-30T09:59:05.175Z,999.83
2022-10-30T10:00:05.188Z,999.85
2022-10-30T10:01:07.337Z,999.90
2022-10-30T10:02:05.293Z,999.94
2022-10-30T10:03:05.161Z,999.96
2022-10-30T10:04:05.139Z,999.96
2022-10-30T10:05:05.126Z,1000.00
2022-10-30T10:06:05.101Z,999.98
2022-10-30T10:07:05.088Z,999.93
2022-10-30T10:08:05.276Z,999.93
2022-10-30T10:09:05.070Z,999.87
2022-10-30T10:10:05.394Z,999.86
2022-10-30T10:11:05.045Z,999.91
2022-10-30T10:12:05.031Z,999.91
2022-10-30T10:13:05.442Z,999.92
2022-10-30T10:14:05.008Z,999.87
2022-10-30T10:15:05.024Z,999.91
2022-10-30T10:16:05.029Z,999.88
2022-10-30T10:17:04.990Z,999.87
2022-10-30T10:18:04.968Z,999.90
2022-10-30T10:19:04.955Z,999.89
2022-10-30T10:20:04.956Z,999.91
2022-10-30T10:21:04.964Z,999.89
2022-10-30T10:22:04.925Z,999.88
2022-10-30T10:24:34.396Z,999.89
2022-10-30T10:25:15.631Z,999.91
2022-10-30T10:26:15.604Z,999.90
2022-10-30T10:27:15.593Z,999.91
2022-10-30T10:28:15.596Z,999.92
2022-10-30T10:29:15.570Z,999.94
2022-10-30T10:30:15.559Z,999.94
2022-10-30T10:31:15.545Z,999.93
2022-10-30T10:32:15.540Z,999.93
2022-10-30T10:33:15.631Z,999.90
2022-10-30T10:34:15.519Z,999.91
2022-10-30T10:35:15.548Z,999.86
2022-10-30T10:36:15.516Z,999.86
2022-10-30T10:37:15.506Z,999.83
2022-10-30T10:38:15.488Z,999.82
2022-10-30T10:39:15.459Z,999.78
2022-10-30T10:40:15.450Z,999.75
2022-10-30T10:41:15.462Z,999.70
2022-10-30T10:42:15.434Z,999.74
2022-10-30T10:43:15.418Z,999.71
2022-10-30T10:44:15.439Z,999.71
2022-10-30T10:45:15.400Z,999.69
2022-10-30T10:46:15.384Z,999.76
2022-10-30T10:47:15.389Z,999.74
2022-10-30T10:48:15.429Z,999.73
2022-10-30T10:49:15.366Z,999.70
2022-10-30T10:50:15.341Z,999.71
2022-10-30T10:51:15.345Z,999.69
2022-10-30T10:52:15.337Z,999.70
2022-10-30T10:53:15.324Z,999.69
2022-10-30T10:54:15.298Z,999.70
2022-10-30T10:55:15.288Z,999.69
2022-10-30T10:56:15.279Z,999.68
2022-10-30T10:57:15.309Z,999.67
2022-10-30T10:58:15.274Z,999.66
2022-10-30T10:59:15.246Z,999.65
2022-10-30T11:00:15.237Z,999.60
2022-10-30T11:01:15.357Z,999.62
2022-10-30T11:02:15.349Z,999.62
2022-10-30T11:04:15.188Z,999.66
2022-10-30T11:05:15.195Z,999.64
2022-10-30T11:06:15.166Z,999.65
2022-10-30T11:07:15.172Z,999.63
2022-10-30T11:08:15.165Z,999.57
2022-10-30T11:09:15.134Z,999.63
2022-10-30T11:10:15.180Z,999.63
2022-10-30T11:11:15.110Z,999.67
2022-10-30T11:12:15.103Z,999.65
2022-10-30T11:13:15.088Z,999.60
2022-10-30T11:14:15.096Z,999.60
2022-10-30T11:15:15.135Z,999.63
2022-10-30T11:16:15.058Z,999.64
2022-10-30T11:17:15.050Z,999.62
2022-10-30T11:18:15.056Z,999.60
2022-10-30T11:19:15.047Z,999.56
2022-10-30T11:20:15.017Z,999.57
2022-10-30T11:21:15.002Z,999.52
2022-10-30T11:22:14.992Z,999.53
2022-10-30T11:23:14.999Z,999.52
2022-10-30T11:24:14.989Z,999.56
2022-10-30T11:25:14.957Z,999.53
2022-10-30T11:26:14.950Z,999.49
2022-10-30T11:27:14.959Z,999.49
2022-10-30T11:28:14.926Z,999.50
2022-10-30T11:29:14.932Z,999.51
2022-10-30T11:30:14.904Z,999.49
2022-10-30T11:31:14.895Z,999.49
2022-10-30T11:32:14.883Z,999.43
2022-10-30T11:33:14.870Z,999.40
2022-10-30T11:34:14.876Z,999.42
2022-10-30T11:35:14.852Z,999.39
2022-10-30T11:36:15.951Z,999.39
2022-10-30T11:37:14.823Z,999.42
2022-10-30T11:38:14.817Z,999.41
2022-10-30T11:39:14.845Z,999.39
2022-10-30T11:40:14.791Z,999.40
2022-10-30T11:41:14.779Z,999.37
2022-10-30T11:42:14.767Z,999.36
2022-10-30T11:43:14.755Z,999.36
2022-10-30T11:44:14.761Z,999.39
2022-10-30T11:45:14.766Z,999.36
2022-10-30T11:46:14.723Z,999.39
2022-10-30T11:47:14.709Z,999.37
2022-10-30T11:48:14.952Z,999.38
2022-10-30T11:49:14.687Z,999.42
2022-10-30T11:50:14.695Z,999.36
2022-10-30T11:51:14.774Z,999.34
2022-10-30T11:52:14.671Z,999.31
2022-10-30T11:53:14.671Z,999.30
2022-10-30T11:54:14.633Z,999.29
2022-10-30T11:55:14.684Z,999.26
2022-10-30T11:56:14.608Z,999.26
2022-10-30T11:57:14.622Z,999.23
2022-10-30T11:58:14.609Z,999.24
2022-10-30T11:59:14.571Z,999.22
2022-10-30T12:00:14.566Z,999.27
2022-10-30T12:01:14.565Z,999.17
2022-10-30T12:02:14.711Z,999.16
2022-10-30T12:03:14.556Z,999.16
2022-10-30T12:04:14.523Z,999.13
2022-10-30T12:05:14.528Z,999.15
2022-10-30T12:06:14.499Z,999.11
2022-10-30T12:07:14.508Z,999.13
2022-10-30T12:08:14.478Z,999.13
2022-10-30T12:11:34.941Z,999.08
2022-10-30T12:12:34.935Z,999.04
2022-10-30T12:13:34.884Z,999.07
2022-10-30T12:14:34.892Z,999.04
2022-10-30T12:15:34.865Z,999.08
2022-10-30T12:16:34.872Z,999.06
2022-10-30T12:17:34.832Z,999.03
2022-10-30T12:18:34.948Z,999.01
2022-10-30T12:19:34.810Z,999.05
2022-10-30T12:20:34.823Z,999.06
2022-10-30T12:21:34.789Z,999.03
2022-10-30T12:22:34.778Z,999.13
2022-10-30T12:23:34.793Z,999.08
2022-10-30T12:24:34.757Z,999.05
2022-10-30T12:25:34.743Z,999.06
2022-10-30T12:26:34.736Z,999.06
2022-10-30T12:27:34.762Z,999.06
2022-10-30T12:28:34.716Z,999.04
2022-10-30T12:30:02.684Z,999.02
2022-10-30T12:30:35.698Z,999.02
2022-10-30T12:31:34.679Z,999.02
2022-10-30T12:32:39.359Z,999.01
2022-10-30T12:33:34.682Z,998.99
2022-10-30T12:34:34.649Z,999.01
2022-10-30T12:35:34.633Z,998.99
2022-10-30T12:36:34.646Z,998.96
2022-10-30T12:37:34.609Z,998.96